MMTO/TLC METAR and TAF weather

Enter ICAO airport designator
Station Type Date Time Source
MMTO METAR 2020/12/05 05:55 UTC NOAA

MMTO 050555Z 04003KT 7SM SKC 05/03 A3041 RMK SLP114 52004 961 HZY


Station Type Date Time Source
MMTO Decoded METAR 2020/12/05 05:55 UTC NOAA

Toluca / Jose Maria , Mexico (MMTO) 19-21N 099-34W
Dec 05, 2020 - 12:55 AM EST / 2020.12.05 0555 UTC
Wind: from the NE (040 degrees) at 3 MPH (3 KT):0
Visibility: 7 mile(s):0
Sky conditions: clear
Temperature: 41 F (5 C)
Dew Point: 37 F (3 C)
Relative Humidity: 86%
Pressure (altimeter): 30.41 in. Hg (1029 hPa)
Pressure tendency: 0.01 inches (0.4 hPa) higher than three hours ago
ob: MMTO 050555Z 04003KT 7SM SKC 05/03 A3041 RMK SLP114 52004 961 HZY
cycle: 6

Station Type Date Time Source
MMTO TAF 2020/12/05 06:51 UTC NOAA

TAF MMTO 050544Z 0506/0612 23005KT P6SM SCT250 TX19/0520Z TN02/0512Z
FM051700 23015KT P6SM BKN250
FM060200 23005KT P6SM SCT100 BKN250

Example: see airport list